createdAt,value
2019-06-15T00:01:19.594Z,20.52
2019-06-15T00:03:48.889Z,20.55
2019-06-15T00:06:17.884Z,20.64
2019-06-15T00:08:46.538Z,20.62
2019-06-15T00:11:15.582Z,20.69
2019-06-15T00:13:44.537Z,20.70
2019-06-15T00:16:13.755Z,20.65
2019-06-15T00:18:42.439Z,20.57
2019-06-15T00:21:11.439Z,20.54
2019-06-15T00:23:40.426Z,20.54
2019-06-15T00:26:09.061Z,20.47
2019-06-15T00:28:37.845Z,20.46
2019-06-15T00:31:06.798Z,20.47
2019-06-15T00:33:36.030Z,20.49
2019-06-15T00:36:04.782Z,20.48
2019-06-15T00:38:33.762Z,20.44
2019-06-15T00:41:02.406Z,20.43
2019-06-15T00:43:31.089Z,20.35
2019-06-15T00:46:00.041Z,20.38
2019-06-15T00:48:29.033Z,20.40
2019-06-15T00:50:58.442Z,20.45
2019-06-15T00:53:27.874Z,20.41
2019-06-15T00:55:56.735Z,20.39
2019-06-15T00:58:25.930Z,20.36
2019-06-15T01:00:54.554Z,20.43
2019-06-15T01:03:23.508Z,20.38
2019-06-15T01:05:52.711Z,20.43
2019-06-15T01:08:21.443Z,20.43
2019-06-15T01:10:50.699Z,20.42
2019-06-15T01:13:19.586Z,20.45
2019-06-15T01:15:48.494Z,20.50
2019-06-15T01:18:17.119Z,20.48
2019-06-15T01:20:46.477Z,20.45
2019-06-15T01:23:15.353Z,20.49
2019-06-15T01:25:44.377Z,20.54
2019-06-15T01:28:13.343Z,20.56
2019-06-15T01:30:42.339Z,20.56
2019-06-15T01:33:11.638Z,20.53
2019-06-15T01:35:40.274Z,20.55
2019-06-15T01:38:08.920Z,20.57
2019-06-15T01:40:37.558Z,20.56
2019-06-15T01:43:06.494Z,20.60
2019-06-15T01:45:35.490Z,20.61
2019-06-15T01:48:04.220Z,20.66
2019-06-15T01:50:32.867Z,20.68
2019-06-15T01:53:01.917Z,20.69
2019-06-15T01:55:30.851Z,20.62
2019-06-15T01:57:59.493Z,20.64
2019-06-15T02:00:31.811Z,20.60
2019-06-15T02:03:00.609Z,20.65
2019-06-15T02:05:29.337Z,20.66
2019-06-15T02:07:58.090Z,20.66
2019-06-15T02:10:30.021Z,20.61
2019-06-15T02:12:58.739Z,20.62
2019-06-15T02:15:27.432Z,20.66
2019-06-15T02:17:56.138Z,20.71
2019-06-15T02:20:24.787Z,20.73
2019-06-15T02:22:53.790Z,20.79
2019-06-15T02:25:35.352Z,20.83
2019-06-15T02:27:57.498Z,20.94
2019-06-15T02:30:30.628Z,20.94
2019-06-15T02:32:59.346Z,20.94
2019-06-15T02:35:28.483Z,20.95
2019-06-15T02:37:57.273Z,20.95
2019-06-15T02:40:26.558Z,20.95
2019-06-15T02:42:55.349Z,20.99
2019-06-15T02:45:24.963Z,20.99
2019-06-15T02:47:53.951Z,21.02
2019-06-15T02:50:23.247Z,21.08
2019-06-15T02:52:51.884Z,21.08
2019-06-15T02:55:20.699Z,21.09
2019-06-15T02:57:49.422Z,21.08
2019-06-15T03:00:29.763Z,21.07
2019-06-15T03:02:58.511Z,21.07
2019-06-15T03:05:27.750Z,21.16
2019-06-15T03:07:56.761Z,21.16
2019-06-15T03:10:26.050Z,21.14
2019-06-15T03:12:55.247Z,21.17
2019-06-15T03:15:24.140Z,21.19
2019-06-15T03:17:53.040Z,21.21
2019-06-15T03:20:21.752Z,21.26
2019-06-15T03:22:50.718Z,21.22
2019-06-15T03:25:19.703Z,21.25
2019-06-15T03:27:48.708Z,21.19
2019-06-15T03:30:17.606Z,21.21
2019-06-15T03:32:46.493Z,21.21
2019-06-15T03:35:16.746Z,21.20
2019-06-15T03:37:45.344Z,21.22
2019-06-15T03:40:14.395Z,21.21
2019-06-15T03:42:43.060Z,21.23
2019-06-15T03:45:12.139Z,21.18
2019-06-15T03:47:41.091Z,21.21
2019-06-15T03:50:10.784Z,21.16
2019-06-15T03:52:39.397Z,21.19
2019-06-15T03:55:08.656Z,21.18
2019-06-15T03:57:37.467Z,21.22
2019-06-15T04:00:08.259Z,21.25
2019-06-15T04:02:37.188Z,21.19
2019-06-15T04:05:06.270Z,21.21
2019-06-15T04:07:35.277Z,21.18
2019-06-15T04:10:04.322Z,21.18
2019-06-15T04:12:33.251Z,21.16
2019-06-15T04:15:02.148Z,21.13
2019-06-15T04:17:30.774Z,21.17
2019-06-15T04:19:59.730Z,21.19
2019-06-15T04:22:28.617Z,21.19
2019-06-15T04:24:57.503Z,21.25
2019-06-15T04:27:26.130Z,21.19
2019-06-15T04:29:55.085Z,21.25
2019-06-15T04:32:23.749Z,21.21
2019-06-15T04:34:52.385Z,21.22
2019-06-15T04:37:21.351Z,21.23
2019-06-15T04:39:50.051Z,21.30
2019-06-15T04:42:19.083Z,21.26
2019-06-15T04:44:48.352Z,21.27
2019-06-15T04:47:17.322Z,21.29
2019-06-15T04:49:46.216Z,21.31
2019-06-15T04:52:14.849Z,21.35
2019-06-15T04:54:43.792Z,21.36
2019-06-15T04:57:12.785Z,21.32
2019-06-15T04:59:41.420Z,21.31
2019-06-15T05:02:10.568Z,21.32
2019-06-15T05:04:39.775Z,21.29
2019-06-15T05:07:08.408Z,21.31
2019-06-15T05:09:37.683Z,21.30
2019-06-15T05:12:06.411Z,21.21
2019-06-15T05:14:35.640Z,21.18
2019-06-15T05:17:04.532Z,21.20
2019-06-15T05:19:33.731Z,21.22
2019-06-15T05:22:02.838Z,21.23
2019-06-15T05:24:31.821Z,21.17
2019-06-15T05:27:06.292Z,21.18
2019-06-15T05:29:30.857Z,21.13
2019-06-15T05:31:59.833Z,21.10
2019-06-15T05:34:28.809Z,21.09
2019-06-15T05:36:57.736Z,21.08
2019-06-15T05:39:26.920Z,21.11
2019-06-15T05:41:55.827Z,21.13
2019-06-15T05:44:24.487Z,21.13
2019-06-15T05:46:53.116Z,21.12
2019-06-15T05:49:22.382Z,21.07
2019-06-15T05:51:51.112Z,21.13
2019-06-15T05:54:20.360Z,21.22
2019-06-15T05:56:49.016Z,21.21
2019-06-15T05:59:17.742Z,21.17
2019-06-15T06:01:46.629Z,21.16
2019-06-15T06:04:15.255Z,21.15
2019-06-15T06:06:43.958Z,21.12
2019-06-15T06:09:12.893Z,21.18
2019-06-15T06:11:41.779Z,21.15
2019-06-15T06:14:11.085Z,21.19
2019-06-15T06:16:39.725Z,21.32
2019-06-15T06:19:08.389Z,21.27
2019-06-15T06:21:37.343Z,21.25
2019-06-15T06:24:06.345Z,21.33
2019-06-15T06:26:35.345Z,21.23
2019-06-15T06:29:04.330Z,21.28
2019-06-15T06:31:32.996Z,21.25
2019-06-15T06:34:02.219Z,21.25
2019-06-15T06:36:31.417Z,21.25
2019-06-15T06:39:00.717Z,21.20
2019-06-15T06:41:29.386Z,21.22
2019-06-15T06:43:58.753Z,21.18
2019-06-15T06:46:28.013Z,21.15
2019-06-15T06:48:57.006Z,21.16
2019-06-15T06:51:25.637Z,21.13
2019-06-15T06:53:54.625Z,21.18
2019-06-15T06:56:23.570Z,21.13
2019-06-15T06:58:52.498Z,21.15
2019-06-15T07:01:21.449Z,21.14
2019-06-15T07:03:50.447Z,21.18
2019-06-15T07:06:19.445Z,21.19
2019-06-15T07:08:48.175Z,21.26
2019-06-15T07:11:17.134Z,21.34
2019-06-15T07:13:46.080Z,21.40
2019-06-15T07:16:14.715Z,21.41
2019-06-15T07:18:44.005Z,21.41
2019-06-15T07:21:13.311Z,21.57
2019-06-15T07:23:42.301Z,21.59
2019-06-15T07:26:11.313Z,21.53
2019-06-15T07:28:40.303Z,21.56
2019-06-15T07:31:09.684Z,21.60
2019-06-15T07:33:39.012Z,21.53
2019-06-15T07:36:08.304Z,21.59
2019-06-15T07:38:37.035Z,21.62
2019-06-15T07:41:06.070Z,21.58
2019-06-15T07:43:34.732Z,21.64
2019-06-15T07:46:03.498Z,21.74
2019-06-15T07:48:32.440Z,21.69
2019-06-15T07:51:02.047Z,21.60
2019-06-15T07:53:31.260Z,21.55
2019-06-15T07:56:00.271Z,21.52
2019-06-15T07:58:28.912Z,21.46
2019-06-15T08:00:57.818Z,21.47
2019-06-15T08:03:26.809Z,21.42
2019-06-15T08:05:55.455Z,21.62
2019-06-15T08:08:24.486Z,21.79
2019-06-15T08:10:53.135Z,21.94
2019-06-15T08:13:21.796Z,22.11
2019-06-15T08:15:50.779Z,22.23
2019-06-15T08:18:20.057Z,22.48
2019-06-15T08:20:48.693Z,22.51
2019-06-15T08:23:18.133Z,22.63
2019-06-15T08:25:46.786Z,22.74
2019-06-15T08:28:15.486Z,22.70
2019-06-15T08:30:45.744Z,22.61
2019-06-15T08:33:14.371Z,22.50
2019-06-15T08:35:42.988Z,22.52
2019-06-15T08:38:11.714Z,22.57
2019-06-15T08:40:40.804Z,22.56
2019-06-15T08:43:09.519Z,22.53
2019-06-15T08:45:38.791Z,22.57
2019-06-15T08:48:07.425Z,22.59
2019-06-15T08:50:36.370Z,22.56
2019-06-15T08:53:05.464Z,22.58
2019-06-15T08:55:34.441Z,22.56
2019-06-15T08:58:03.395Z,22.56
2019-06-15T09:00:32.064Z,22.58
2019-06-15T09:03:01.055Z,22.56
2019-06-15T09:05:30.354Z,22.62
2019-06-15T09:07:58.972Z,22.60
2019-06-15T09:10:28.034Z,22.64
2019-06-15T09:12:56.653Z,22.68
2019-06-15T09:15:36.234Z,22.82
2019-06-15T09:18:04.879Z,22.87
2019-06-15T09:20:33.517Z,21.67
2019-06-15T09:23:02.429Z,20.37
2019-06-15T09:25:31.443Z,19.63
2019-06-15T09:28:00.425Z,19.27
2019-06-15T09:30:32.009Z,19.03
2019-06-15T09:33:01.136Z,18.65
2019-06-15T09:35:30.129Z,18.47
2019-06-15T09:37:59.439Z,18.36
2019-06-15T09:40:28.328Z,18.30
2019-06-15T09:42:57.318Z,18.31
2019-06-15T09:45:25.985Z,18.18
2019-06-15T09:47:55.306Z,18.22
2019-06-15T09:50:24.026Z,18.25
2019-06-15T09:52:52.987Z,18.14
2019-06-15T09:55:21.709Z,18.21
2019-06-15T09:57:50.763Z,18.26
2019-06-15T10:00:19.501Z,18.28
2019-06-15T10:02:48.447Z,18.22
2019-06-15T10:05:17.169Z,18.27
2019-06-15T10:07:46.127Z,18.29
2019-06-15T10:10:16.770Z,18.48
2019-06-15T10:12:45.406Z,18.50
2019-06-15T10:15:16.083Z,18.49
2019-06-15T10:17:45.069Z,18.42
2019-06-15T10:20:15.257Z,18.42
2019-06-15T10:22:43.943Z,18.47
2019-06-15T10:25:12.657Z,18.49
2019-06-15T10:27:41.662Z,18.60
2019-06-15T10:30:10.724Z,18.59
2019-06-15T10:32:39.961Z,18.67
2019-06-15T10:35:08.961Z,18.68
2019-06-15T10:37:37.901Z,18.67
2019-06-15T10:40:07.073Z,18.73
2019-06-15T10:42:35.784Z,18.88
2019-06-15T10:45:04.892Z,18.94
2019-06-15T10:47:33.927Z,18.88
2019-06-15T10:50:02.923Z,18.84
2019-06-15T10:52:31.926Z,18.78
2019-06-15T10:55:00.595Z,18.83
2019-06-15T10:57:29.906Z,18.87
2019-06-15T10:59:58.636Z,18.88
2019-06-15T11:02:27.301Z,18.87
2019-06-15T11:04:56.267Z,18.85
2019-06-15T11:07:25.574Z,18.84
2019-06-15T11:09:54.223Z,18.92
2019-06-15T11:12:22.957Z,19.02
2019-06-15T11:14:51.978Z,19.16
2019-06-15T11:17:21.030Z,19.21
2019-06-15T11:19:50.044Z,19.31
2019-06-15T11:22:19.140Z,19.37
2019-06-15T11:24:48.063Z,19.54
2019-06-15T11:27:16.853Z,19.66
2019-06-15T11:29:45.918Z,19.98
2019-06-15T11:32:15.016Z,20.11
2019-06-15T11:34:43.712Z,20.20
2019-06-15T11:37:12.769Z,20.51
2019-06-15T11:39:41.648Z,20.48
2019-06-15T11:42:10.661Z,20.67
2019-06-15T11:44:40.226Z,20.67
2019-06-15T11:47:09.153Z,21.12
2019-06-15T11:49:38.146Z,21.17
2019-06-15T11:52:07.140Z,21.35
2019-06-15T11:54:35.869Z,21.09
2019-06-15T11:57:04.579Z,21.01
2019-06-15T11:59:33.249Z,21.15
2019-06-15T12:02:01.887Z,21.11
2019-06-15T12:04:31.091Z,20.93
2019-06-15T12:07:00.079Z,20.90
2019-06-15T12:09:28.699Z,21.02
2019-06-15T12:11:57.336Z,20.80
2019-06-15T12:14:25.969Z,20.79
2019-06-15T12:16:54.927Z,20.82
2019-06-15T12:19:23.944Z,20.76
2019-06-15T12:21:52.876Z,20.69
2019-06-15T12:24:21.810Z,20.78
2019-06-15T12:26:50.444Z,20.74
2019-06-15T12:29:19.177Z,20.79
2019-06-15T12:31:47.807Z,20.95
2019-06-15T12:34:16.869Z,21.12
2019-06-15T12:36:46.168Z,21.49
2019-06-15T12:39:15.368Z,21.65
2019-06-15T12:41:44.006Z,21.79
2019-06-15T12:44:13.245Z,21.70
2019-06-15T12:46:41.872Z,22.15
2019-06-15T12:49:10.537Z,21.98
2019-06-15T12:51:40.878Z,22.02
2019-06-15T12:54:10.050Z,21.99
2019-06-15T12:56:44.163Z,21.60
2019-06-15T12:59:12.762Z,21.49
2019-06-15T13:01:41.770Z,21.25
2019-06-15T13:04:10.729Z,21.28
2019-06-15T13:06:40.043Z,21.42
2019-06-15T13:09:09.127Z,21.32
2019-06-15T13:11:37.845Z,21.40
2019-06-15T13:14:06.572Z,21.43
2019-06-15T13:16:39.490Z,21.57
2019-06-15T13:19:06.428Z,21.40
2019-06-15T13:21:35.495Z,21.44
2019-06-15T13:24:06.163Z,21.35
2019-06-15T13:26:34.798Z,21.46
2019-06-15T13:29:03.837Z,21.26
2019-06-15T13:31:32.485Z,21.25
2019-06-15T13:34:01.723Z,21.20
2019-06-15T13:36:30.615Z,21.29
2019-06-15T13:38:59.261Z,21.15
2019-06-15T13:41:28.605Z,21.30
2019-06-15T13:43:57.515Z,21.37
2019-06-15T13:46:26.181Z,21.31
2019-06-15T13:48:55.199Z,21.23
2019-06-15T13:51:23.828Z,21.12
2019-06-15T13:53:52.543Z,21.11
2019-06-15T13:56:21.541Z,21.12
2019-06-15T13:58:50.534Z,21.22
2019-06-15T14:01:33.327Z,21.32
2019-06-15T14:03:49.785Z,21.36
2019-06-15T14:06:18.439Z,21.56
2019-06-15T14:08:47.434Z,21.69
2019-06-15T14:11:16.070Z,21.90
2019-06-15T14:13:45.000Z,22.49
2019-06-15T14:16:13.907Z,22.98
2019-06-15T14:18:42.793Z,23.42
2019-06-15T14:21:11.428Z,22.55
2019-06-15T14:23:40.695Z,22.23
2019-06-15T14:26:09.670Z,21.72
2019-06-15T14:28:38.871Z,21.51
2019-06-15T14:31:07.910Z,21.49
2019-06-15T14:33:36.479Z,21.34
2019-06-15T14:36:05.197Z,21.12
2019-06-15T14:38:33.834Z,20.93
2019-06-15T14:41:02.752Z,21.00
2019-06-15T14:43:31.632Z,20.91
2019-06-15T14:46:00.607Z,20.82
2019-06-15T14:48:29.593Z,20.75
2019-06-15T14:50:58.593Z,20.65
2019-06-15T14:53:27.477Z,20.68
2019-06-15T14:55:56.634Z,20.67
2019-06-15T14:58:26.371Z,20.65
2019-06-15T15:00:57.114Z,20.63
2019-06-15T15:03:26.346Z,20.67
2019-06-15T15:05:55.208Z,20.53
2019-06-15T15:08:26.310Z,20.54
2019-06-15T15:10:56.296Z,20.65
2019-06-15T15:13:26.449Z,20.68
2019-06-15T15:15:57.041Z,20.72
2019-06-15T15:18:27.027Z,20.79
2019-06-15T15:20:56.664Z,20.85
2019-06-15T15:23:25.960Z,20.94
2019-06-15T15:25:57.506Z,20.98
2019-06-15T15:28:25.988Z,21.05
2019-06-15T15:30:54.876Z,21.14
2019-06-15T15:33:24.179Z,20.99
2019-06-15T15:35:53.172Z,21.03
2019-06-15T15:38:21.838Z,21.13
2019-06-15T15:40:50.759Z,21.18
2019-06-15T15:43:19.855Z,21.11
2019-06-15T15:45:49.051Z,21.22
2019-06-15T15:48:20.923Z,21.44
2019-06-15T15:50:48.899Z,21.64
2019-06-15T15:53:18.075Z,22.02
2019-06-15T15:55:46.911Z,21.73
2019-06-15T15:58:16.643Z,21.90
2019-06-15T16:00:46.829Z,21.81
2019-06-15T16:03:16.191Z,21.69
2019-06-15T16:05:47.153Z,21.48
2019-06-15T16:08:16.427Z,21.51
2019-06-15T16:10:46.276Z,21.40
2019-06-15T16:13:16.595Z,21.23
2019-06-15T16:15:46.230Z,21.21
2019-06-15T16:18:17.436Z,21.32
2019-06-15T16:20:47.094Z,21.17
2019-06-15T16:23:16.204Z,21.21
2019-06-15T16:25:46.462Z,21.16
2019-06-15T16:28:15.394Z,21.12
2019-06-15T16:31:03.821Z,21.04
2019-06-15T16:33:16.220Z,21.06
2019-06-15T16:35:46.663Z,21.01
2019-06-15T16:38:19.303Z,21.14
2019-06-15T16:40:46.972Z,21.21
2019-06-15T16:43:17.510Z,21.23
2019-06-15T16:45:46.731Z,21.43
2019-06-15T16:48:16.851Z,21.55
2019-06-15T16:50:46.896Z,21.45
2019-06-15T16:53:16.850Z,21.30
2019-06-15T16:55:46.823Z,21.38
2019-06-15T16:58:16.256Z,21.38
2019-06-15T17:00:47.747Z,21.28
2019-06-15T17:03:22.097Z,21.37
2019-06-15T17:05:46.987Z,21.25
2019-06-15T17:08:17.271Z,21.21
2019-06-15T17:10:46.178Z,21.29
2019-06-15T17:13:16.053Z,21.33
2019-06-15T17:15:46.920Z,21.59
2019-06-15T17:18:15.448Z,21.61
2019-06-15T17:20:49.584Z,21.61
2019-06-15T17:23:18.720Z,21.56
2019-06-15T17:25:48.324Z,21.42
2019-06-15T17:28:16.980Z,21.57
2019-06-15T17:30:46.010Z,21.53
2019-06-15T17:33:16.492Z,21.60
2019-06-15T17:35:58.061Z,21.60
2019-06-15T17:38:16.697Z,21.45
2019-06-15T17:40:46.226Z,21.35
2019-06-15T17:43:16.153Z,21.21
2019-06-15T17:45:46.887Z,21.11
2019-06-15T17:48:17.431Z,21.03
2019-06-15T17:50:47.752Z,21.08
2019-06-15T17:53:17.071Z,21.03
2019-06-15T17:55:46.980Z,21.13
2019-06-15T17:58:17.072Z,20.98
2019-06-15T18:00:47.152Z,20.90
2019-06-15T18:03:17.487Z,20.90
2019-06-15T18:05:48.161Z,20.82
2019-06-15T18:08:17.316Z,20.88
2019-06-15T18:10:47.568Z,20.90
2019-06-15T18:13:17.242Z,20.94
2019-06-15T18:15:47.628Z,21.05
2019-06-15T18:18:17.262Z,21.15
2019-06-15T18:20:46.980Z,21.16
2019-06-15T18:23:17.497Z,21.18
2019-06-15T18:25:46.997Z,21.03
2019-06-15T18:28:17.466Z,20.96
2019-06-15T18:30:46.893Z,20.94
2019-06-15T18:33:16.420Z,20.73
2019-06-15T18:35:47.492Z,20.78
2019-06-15T18:38:16.189Z,20.81
2019-06-15T18:40:45.181Z,20.80
2019-06-15T18:43:16.677Z,20.72
2019-06-15T18:45:47.171Z,20.74
2019-06-15T18:48:16.847Z,20.71
2019-06-15T18:50:46.077Z,20.71
2019-06-15T18:53:15.065Z,20.62
2019-06-15T18:55:43.998Z,20.60
2019-06-15T18:58:12.672Z,20.51
2019-06-15T19:00:41.985Z,20.43
2019-06-15T19:03:10.615Z,20.33
2019-06-15T19:05:40.917Z,20.21
2019-06-15T19:08:09.843Z,20.21
2019-06-15T19:10:38.942Z,20.10
2019-06-15T19:13:07.878Z,20.01
2019-06-15T19:15:37.691Z,20.04
2019-06-15T19:18:07.803Z,20.02
2019-06-15T19:20:37.435Z,19.93
2019-06-15T19:23:07.147Z,19.96
2019-06-15T19:25:36.807Z,19.96
2019-06-15T19:28:05.944Z,19.97
2019-06-15T19:30:37.371Z,20.02
2019-06-15T19:33:05.651Z,20.06
2019-06-15T19:35:36.320Z,20.10
2019-06-15T19:38:06.476Z,20.08
2019-06-15T19:40:37.785Z,20.01
2019-06-15T19:43:06.813Z,19.96
2019-06-15T19:45:37.078Z,19.98
2019-06-15T19:48:06.801Z,19.94
2019-06-15T19:50:36.455Z,19.87
2019-06-15T19:53:06.982Z,19.89
2019-06-15T19:55:36.320Z,19.89
2019-06-15T19:58:07.261Z,19.89
2019-06-15T20:00:36.547Z,19.91
2019-06-15T20:03:06.996Z,19.93
2019-06-15T20:05:36.993Z,19.93
2019-06-15T20:08:07.125Z,19.93
2019-06-15T20:10:36.963Z,19.97
2019-06-15T20:13:07.211Z,19.89
2019-06-15T20:15:37.836Z,19.85
2019-06-15T20:18:07.245Z,19.77
2019-06-15T20:20:37.136Z,19.82
2019-06-15T20:23:07.271Z,19.77
2019-06-15T20:25:36.951Z,19.63
2019-06-15T20:28:07.306Z,19.57
2019-06-15T20:30:36.949Z,19.56
2019-06-15T20:33:07.935Z,19.46
2019-06-15T20:35:36.232Z,19.56
2019-06-15T20:38:04.963Z,19.45
2019-06-15T20:40:36.261Z,19.42
2019-06-15T20:43:04.477Z,19.34
2019-06-15T20:45:33.481Z,19.29
2019-06-15T20:48:02.468Z,19.24
2019-06-15T20:50:31.137Z,19.07
2019-06-15T20:53:00.359Z,19.17
2019-06-15T20:55:29.089Z,19.20
2019-06-15T20:57:58.340Z,19.23
2019-06-15T21:00:27.340Z,19.22
2019-06-15T21:02:56.372Z,19.09
2019-06-15T21:05:36.952Z,19.19
2019-06-15T21:07:57.635Z,19.22
2019-06-15T21:10:26.603Z,19.25
2019-06-15T21:12:55.903Z,19.24
2019-06-15T21:15:28.262Z,19.21
2019-06-15T21:17:57.713Z,19.16
2019-06-15T21:20:26.902Z,19.17
2019-06-15T21:22:57.167Z,19.14
2019-06-15T21:25:26.431Z,19.16
2019-06-15T21:27:56.762Z,19.23
2019-06-15T21:30:27.107Z,19.29
2019-06-15T21:32:56.172Z,19.28
2019-06-15T21:35:26.779Z,19.35
2019-06-15T21:37:57.106Z,19.39
2019-06-15T21:40:27.311Z,19.37
2019-06-15T21:42:56.469Z,19.32
2019-06-15T21:45:25.158Z,19.33
2019-06-15T21:47:56.035Z,19.30
2019-06-15T21:50:26.783Z,19.20
2019-06-15T21:52:56.523Z,19.14
2019-06-15T21:55:26.845Z,19.07
2019-06-15T21:57:56.452Z,19.05
2019-06-15T22:00:39.434Z,19.05
2019-06-15T22:03:08.307Z,19.04
2019-06-15T22:05:37.189Z,19.06
2019-06-15T22:08:06.540Z,18.89
2019-06-15T22:10:36.047Z,18.91
2019-06-15T22:13:06.545Z,18.81
2019-06-15T22:15:35.469Z,18.64
2019-06-15T22:18:06.791Z,18.23
2019-06-15T22:20:36.033Z,17.98
2019-06-15T22:23:06.736Z,17.85
2019-06-15T22:25:36.090Z,17.73
2019-06-15T22:28:06.954Z,17.45
2019-06-15T22:30:36.656Z,17.18
2019-06-15T22:33:06.783Z,17.05
2019-06-15T22:35:36.384Z,16.90
2019-06-15T22:38:07.234Z,16.69
2019-06-15T22:40:36.386Z,16.72
2019-06-15T22:43:07.012Z,16.68
2019-06-15T22:45:36.065Z,16.65
2019-06-15T22:48:06.778Z,16.63
2019-06-15T22:50:36.092Z,16.64
2019-06-15T22:53:07.258Z,16.59
2019-06-15T22:55:36.996Z,16.62
2019-06-15T22:58:06.428Z,16.68
2019-06-15T23:00:37.583Z,16.70
2019-06-15T23:03:06.546Z,16.59
2019-06-15T23:05:35.808Z,16.52
2019-06-15T23:08:06.960Z,16.55
2019-06-15T23:10:36.778Z,16.60
2019-06-15T23:13:06.512Z,16.61
2019-06-15T23:15:37.131Z,16.71
2019-06-15T23:18:06.726Z,16.68
2019-06-15T23:20:36.860Z,16.59
2019-06-15T23:23:07.926Z,16.63
2019-06-15T23:25:37.165Z,16.66
2019-06-15T23:28:07.064Z,16.67
2019-06-15T23:30:36.573Z,16.63
2019-06-15T23:33:06.550Z,16.68
2019-06-15T23:35:41.846Z,16.73
2019-06-15T23:38:11.145Z,16.74
2019-06-15T23:40:39.851Z,16.71
2019-06-15T23:43:08.483Z,16.75
2019-06-15T23:45:37.416Z,16.70
2019-06-15T23:48:06.136Z,16.70
2019-06-15T23:50:36.772Z,16.74
2019-06-15T23:53:05.418Z,16.68
2019-06-15T23:55:36.642Z,16.66
2019-06-15T23:58:06.693Z,16.72
